createdAt,value
2023-05-03T00:08:40.891Z,73.52
2023-05-03T00:18:49.354Z,73.77
2023-05-03T00:28:53.438Z,73.98
2023-05-03T00:38:56.970Z,74.27
2023-05-03T00:49:00.863Z,74.54
2023-05-03T00:59:09.423Z,74.62
2023-05-03T01:09:14.914Z,74.89
2023-05-03T01:19:28.655Z,74.98
2023-05-03T01:29:32.365Z,75.19
2023-05-03T01:39:37.085Z,75.34
2023-05-03T01:49:40.904Z,75.35
2023-05-03T01:59:44.617Z,75.33
2023-05-03T02:09:47.940Z,75.35
2023-05-03T02:19:55.613Z,75.25
2023-05-03T02:29:59.086Z,75.45
2023-05-03T02:40:02.569Z,75.76
2023-05-03T02:50:07.407Z,75.86
2023-05-03T03:00:13.015Z,75.99
2023-05-03T03:10:20.326Z,76.05
2023-05-03T03:20:23.962Z,76.08
2023-05-03T03:30:27.561Z,76.02
2023-05-03T03:40:31.691Z,76.06
2023-05-03T03:50:35.290Z,76.29
2023-05-03T04:00:39.562Z,76.31
2023-05-03T04:10:43.471Z,76.54
2023-05-03T04:20:47.040Z,76.70
2023-05-03T04:30:51.265Z,76.70
2023-05-03T04:40:54.821Z,76.76
2023-05-03T04:50:58.792Z,76.74
2023-05-03T05:01:03.573Z,76.83
2023-05-03T05:11:07.712Z,76.69
2023-05-03T05:21:14.016Z,76.64
2023-05-03T05:31:17.992Z,76.45
2023-05-03T05:41:21.767Z,76.34
2023-05-03T05:51:30.681Z,76.09
2023-05-03T06:01:34.384Z,75.98
2023-05-03T06:11:38.896Z,75.93
2023-05-03T06:21:42.893Z,75.88
2023-05-03T06:31:46.487Z,75.87
2023-05-03T06:41:50.346Z,75.90
2023-05-03T06:51:54.032Z,75.87
2023-05-03T07:01:58.038Z,75.69
2023-05-03T07:12:01.995Z,75.57
2023-05-03T07:22:17.416Z,75.32
2023-05-03T07:32:24.413Z,75.18
2023-05-03T07:42:28.101Z,74.68
2023-05-03T07:52:32.017Z,74.31
2023-05-03T08:02:35.653Z,73.90
2023-05-03T08:12:39.842Z,73.54
2023-05-03T08:22:46.266Z,72.67
2023-05-03T08:32:50.968Z,72.46
2023-05-03T08:42:55.750Z,72.12
2023-05-03T08:53:00.232Z,71.44
2023-05-03T09:13:09.177Z,71.14
2023-05-03T09:23:13.009Z,70.30
2023-05-03T09:33:28.589Z,69.74
2023-05-03T09:43:33.588Z,68.77
2023-05-03T09:53:38.739Z,67.82
2023-05-03T10:03:44.216Z,66.45
2023-05-03T10:13:48.007Z,66.14
2023-05-03T10:24:11.656Z,64.39
2023-05-03T10:34:21.115Z,63.85
2023-05-03T10:44:27.756Z,61.98
2023-05-03T10:54:31.425Z,60.45
2023-05-03T11:04:35.463Z,58.64
2023-05-03T11:14:39.220Z,58.81
2023-05-03T11:24:42.809Z,56.53
2023-05-03T11:34:46.687Z,57.13
2023-05-03T11:44:50.941Z,55.60
2023-05-03T11:54:56.864Z,55.41
2023-05-03T12:05:01.911Z,55.91
2023-05-03T12:15:08.088Z,53.60
2023-05-03T12:25:15.245Z,52.72
2023-05-03T12:35:20.351Z,53.36
2023-05-03T12:45:28.350Z,52.85
2023-05-03T12:55:33.473Z,50.78
2023-05-03T13:05:38.102Z,51.62
2023-05-03T13:15:43.134Z,51.23
2023-05-03T13:25:46.931Z,50.96
2023-05-03T13:35:50.574Z,49.95
2023-05-03T13:46:00.354Z,49.91
2023-05-03T13:56:04.133Z,49.34
2023-05-03T14:06:07.746Z,48.89
2023-05-03T14:16:17.558Z,49.32
2023-05-03T14:26:26.277Z,49.24
2023-05-03T14:36:34.261Z,48.24
2023-05-03T14:46:37.909Z,48.03
2023-05-03T14:56:42.106Z,47.64
2023-05-03T15:06:46.013Z,45.79
2023-05-03T15:16:49.820Z,45.74
2023-05-03T15:26:53.831Z,45.57
2023-05-03T15:36:57.554Z,45.85
2023-05-03T15:47:00.881Z,46.03
2023-05-03T15:57:05.305Z,46.36
2023-05-03T16:07:12.377Z,46.76
2023-05-03T16:17:19.406Z,46.32
2023-05-03T16:27:22.960Z,45.99
2023-05-03T16:37:26.987Z,45.64
2023-05-03T16:47:32.871Z,46.25
2023-05-03T16:57:40.596Z,46.66
2023-05-03T17:07:47.463Z,47.34
2023-05-03T17:17:51.087Z,47.64
2023-05-03T17:27:55.200Z,48.05
2023-05-03T17:37:59.677Z,48.58
2023-05-03T17:48:06.279Z,49.11
2023-05-03T17:58:10.975Z,49.75
2023-05-03T18:08:14.952Z,50.28
2023-05-03T18:18:22.783Z,50.96
2023-05-03T18:28:27.091Z,51.52
2023-05-03T18:38:30.886Z,52.41
2023-05-03T18:48:35.011Z,53.14
2023-05-03T18:58:38.770Z,53.95
2023-05-03T19:08:43.176Z,54.60
2023-05-03T19:18:47.622Z,55.66
2023-05-03T19:28:51.123Z,56.49
2023-05-03T19:38:54.973Z,57.13
2023-05-03T19:48:58.989Z,57.68
2023-05-03T19:59:06.503Z,58.28
2023-05-03T20:09:10.735Z,59.01
2023-05-03T20:19:14.527Z,59.66
2023-05-03T20:29:18.552Z,60.41
2023-05-03T20:39:22.151Z,60.88
2023-05-03T20:49:26.335Z,61.28
2023-05-03T20:59:30.458Z,62.07
2023-05-03T21:09:58.573Z,62.72
2023-05-03T21:20:02.705Z,62.94
2023-05-03T21:30:19.940Z,63.32
2023-05-03T21:40:23.422Z,63.92
2023-05-03T21:50:27.088Z,63.91
2023-05-03T22:00:31.312Z,64.27
2023-05-03T22:10:34.861Z,64.85
2023-05-03T22:20:38.471Z,65.25
2023-05-03T22:30:42.144Z,65.50
2023-05-03T22:40:45.957Z,65.89
2023-05-03T22:50:53.376Z,65.87
2023-05-03T23:00:57.823Z,65.98
2023-05-03T23:11:01.396Z,66.66
2023-05-03T23:21:05.442Z,67.00
2023-05-03T23:31:09.006Z,66.91
2023-05-03T23:41:13.115Z,67.32
2023-05-03T23:51:16.790Z,67.59
